createdAt,value
2024-02-10T00:02:23.031Z,20
2024-02-10T00:04:53.748Z,20
2024-02-10T00:07:24.727Z,20
2024-02-10T00:09:55.411Z,17
2024-02-10T00:12:26.780Z,16
2024-02-10T00:14:57.989Z,18
2024-02-10T00:17:28.955Z,19
2024-02-10T00:20:00.472Z,16
2024-02-10T00:22:31.573Z,19
2024-02-10T00:25:02.268Z,18
2024-02-10T00:27:32.497Z,16
2024-02-10T00:30:02.864Z,16
2024-02-10T00:32:32.086Z,20
2024-02-10T00:35:05.901Z,18
2024-02-10T00:37:36.477Z,16
2024-02-10T00:40:07.188Z,15
2024-02-10T00:42:38.486Z,16
2024-02-10T00:45:09.377Z,20
2024-02-10T00:47:40.576Z,20
2024-02-10T00:50:10.770Z,20
2024-02-10T00:52:41.708Z,16
2024-02-10T00:55:12.159Z,16
2024-02-10T00:57:43.614Z,18
2024-02-10T01:00:15.493Z,16
2024-02-10T01:02:45.979Z,16
2024-02-10T01:05:17.490Z,18
2024-02-10T01:07:46.642Z,16
2024-02-10T01:10:19.108Z,15
2024-02-10T01:12:50.186Z,12
2024-02-10T01:15:21.132Z,17
2024-02-10T01:17:51.516Z,20
2024-02-10T01:20:21.064Z,20
2024-02-10T01:22:51.789Z,22
2024-02-10T01:25:22.514Z,16
2024-02-10T01:27:53.501Z,16
2024-02-10T01:30:24.980Z,16
2024-02-10T01:32:56.198Z,16
2024-02-10T01:35:26.895Z,20
2024-02-10T01:37:58.573Z,16
2024-02-10T01:40:29.552Z,12
2024-02-10T01:43:00.460Z,14
2024-02-10T01:45:31.468Z,17
2024-02-10T01:48:02.484Z,15
2024-02-10T01:50:34.178Z,13
2024-02-10T01:53:05.352Z,12
2024-02-10T01:55:36.891Z,12
2024-02-10T01:58:07.699Z,14
2024-02-10T02:00:39.001Z,12
2024-02-10T02:03:10.795Z,16
2024-02-10T02:05:42.132Z,16
2024-02-10T02:08:13.942Z,8
2024-02-10T02:10:45.256Z,16
2024-02-10T02:13:16.231Z,12
2024-02-10T02:15:47.200Z,12
2024-02-10T02:18:19.757Z,12
2024-02-10T02:20:48.624Z,12
2024-02-10T02:23:18.976Z,12
2024-02-10T02:25:49.337Z,10
2024-02-10T02:28:19.983Z,12
2024-02-10T02:30:51.895Z,12
2024-02-10T02:33:23.224Z,12
2024-02-10T02:35:53.455Z,9
2024-02-10T02:38:24.158Z,12
2024-02-10T02:40:56.291Z,12
2024-02-10T02:43:27.153Z,12
2024-02-10T02:45:58.321Z,12
2024-02-10T02:48:29.074Z,11
2024-02-10T02:51:00.189Z,12
2024-02-10T02:53:31.409Z,12
2024-02-10T02:56:03.059Z,12
2024-02-10T02:58:33.821Z,12
2024-02-10T03:01:04.339Z,12
2024-02-10T03:03:33.581Z,12
2024-02-10T03:06:04.112Z,11
2024-02-10T03:08:35.333Z,12
2024-02-10T03:11:05.983Z,12
2024-02-10T03:13:36.816Z,10
2024-02-10T03:16:08.045Z,8
2024-02-10T03:18:38.580Z,8
2024-02-10T03:21:08.979Z,12
2024-02-10T03:23:39.621Z,8
2024-02-10T03:26:11.632Z,8
2024-02-10T03:28:42.305Z,8
2024-02-10T03:31:13.914Z,8
2024-02-10T03:33:44.829Z,12
2024-02-10T03:36:16.000Z,8
2024-02-10T03:38:46.825Z,10
2024-02-10T03:41:17.464Z,8
2024-02-10T03:43:49.287Z,8
2024-02-10T03:46:20.236Z,11
2024-02-10T03:48:51.176Z,8
2024-02-10T03:51:22.109Z,8
2024-02-10T03:53:52.612Z,8
2024-02-10T03:56:23.889Z,8
2024-02-10T03:58:54.516Z,8
2024-02-10T04:01:25.240Z,8
2024-02-10T04:03:55.531Z,8
2024-02-10T04:06:27.142Z,8
2024-02-10T04:08:58.449Z,8
2024-02-10T04:11:30.177Z,12
2024-02-10T04:14:02.501Z,8
2024-02-10T04:16:33.189Z,12
2024-02-10T04:19:04.651Z,8
2024-02-10T04:21:35.813Z,8
2024-02-10T04:24:06.688Z,8
2024-02-10T04:26:39.586Z,8
2024-02-10T04:29:11.072Z,12
2024-02-10T04:31:42.457Z,8
2024-02-10T04:34:14.180Z,8
2024-02-10T04:36:45.094Z,12
2024-02-10T04:39:16.622Z,12
2024-02-10T04:41:47.798Z,12
2024-02-10T04:44:18.569Z,8
2024-02-10T04:46:49.936Z,8
2024-02-10T04:49:21.021Z,8
2024-02-10T04:51:51.618Z,11
2024-02-10T04:54:22.826Z,8
2024-02-10T04:56:54.018Z,8
2024-02-10T04:59:25.199Z,12
2024-02-10T05:01:56.204Z,12
2024-02-10T05:04:27.038Z,12
2024-02-10T05:06:57.781Z,8
2024-02-10T05:09:30.617Z,16
2024-02-10T05:12:01.283Z,16
2024-02-10T05:14:31.746Z,12
2024-02-10T05:17:02.603Z,12
2024-02-10T05:19:32.883Z,9
2024-02-10T05:22:03.682Z,12
2024-02-10T05:24:34.541Z,12
2024-02-10T05:27:05.973Z,8
2024-02-10T05:29:36.613Z,12
2024-02-10T05:32:07.403Z,12
2024-02-10T05:34:38.392Z,14
2024-02-10T05:37:12.630Z,16
2024-02-10T05:39:43.500Z,14
2024-02-10T05:42:14.108Z,12
2024-02-10T05:44:45.091Z,12
2024-02-10T05:47:15.598Z,12
2024-02-10T05:49:45.825Z,16
2024-02-10T05:52:16.579Z,16
2024-02-10T05:54:46.989Z,12
2024-02-10T05:57:17.805Z,12
2024-02-10T05:59:48.454Z,12
2024-02-10T06:02:19.393Z,12
2024-02-10T06:04:50.165Z,9
2024-02-10T06:07:21.040Z,8
2024-02-10T06:09:49.817Z,11
2024-02-10T06:12:20.276Z,12
2024-02-10T06:14:51.204Z,12
2024-02-10T06:17:22.647Z,8
2024-02-10T06:19:50.866Z,12
2024-02-10T06:22:21.817Z,12
2024-02-10T06:24:52.772Z,8
2024-02-10T06:27:23.205Z,12
2024-02-10T06:29:53.934Z,10
2024-02-10T06:32:24.607Z,12
2024-02-10T06:34:56.032Z,12
2024-02-10T06:37:25.245Z,10
2024-02-10T06:39:57.246Z,12
2024-02-10T06:42:28.437Z,12
2024-02-10T06:44:58.666Z,13
2024-02-10T06:47:29.396Z,17
2024-02-10T06:50:00.196Z,13
2024-02-10T06:52:31.593Z,12
2024-02-10T06:55:02.055Z,14
2024-02-10T06:57:32.187Z,13
2024-02-10T07:00:02.712Z,16
2024-02-10T07:02:33.553Z,16
2024-02-10T07:05:04.501Z,20
2024-02-10T07:07:35.757Z,16
2024-02-10T07:10:04.563Z,16
2024-02-10T07:12:35.021Z,20
2024-02-10T07:15:05.302Z,22
2024-02-10T07:17:35.741Z,20
2024-02-10T07:20:06.916Z,16
2024-02-10T07:22:37.820Z,20
2024-02-10T07:25:08.058Z,32
2024-02-10T07:27:38.773Z,32
2024-02-10T07:30:09.695Z,24
2024-02-10T07:32:39.912Z,20
2024-02-10T07:35:10.126Z,23
2024-02-10T07:37:40.666Z,23
2024-02-10T07:40:11.322Z,20
2024-02-10T07:42:41.761Z,21
2024-02-10T07:45:12.589Z,18
2024-02-10T07:47:42.932Z,16
2024-02-10T07:50:14.671Z,20
2024-02-10T07:52:45.472Z,16
2024-02-10T07:55:16.295Z,16
2024-02-10T07:57:47.942Z,20
2024-02-10T08:00:18.428Z,22
2024-02-10T08:02:49.221Z,23
2024-02-10T08:05:18.542Z,20
2024-02-10T08:07:48.823Z,16
2024-02-10T08:10:19.373Z,20
2024-02-10T08:12:49.629Z,19
2024-02-10T08:15:20.441Z,20
2024-02-10T08:17:50.686Z,20
2024-02-10T08:20:22.031Z,20
2024-02-10T08:22:52.656Z,20
2024-02-10T08:25:23.289Z,20
2024-02-10T08:27:54.517Z,24
2024-02-10T08:30:24.896Z,20
2024-02-10T08:32:57.276Z,20
2024-02-10T08:35:27.247Z,20
2024-02-10T08:37:57.789Z,21
2024-02-10T08:40:29.075Z,28
2024-02-10T08:42:59.871Z,29
2024-02-10T08:45:30.917Z,25
2024-02-10T08:48:01.792Z,24
2024-02-10T08:50:32.423Z,36
2024-02-10T08:53:03.725Z,29
2024-02-10T08:55:35.984Z,24
2024-02-10T08:58:06.128Z,22
2024-02-10T09:00:36.578Z,20
2024-02-10T09:03:08.119Z,28
2024-02-10T09:05:39.096Z,28
2024-02-10T09:08:09.892Z,27
2024-02-10T09:10:40.642Z,21
2024-02-10T09:13:11.712Z,20
2024-02-10T09:15:42.625Z,16
2024-02-10T09:18:13.148Z,12
2024-02-10T09:20:44.780Z,13
2024-02-10T09:23:15.256Z,16
2024-02-10T09:25:47.907Z,11
2024-02-10T09:28:18.636Z,20
2024-02-10T09:30:49.504Z,16
2024-02-10T09:33:21.662Z,18
2024-02-10T09:35:52.063Z,14
2024-02-10T09:38:22.129Z,11
2024-02-10T09:40:53.400Z,8
2024-02-10T09:43:24.411Z,8
2024-02-10T09:45:55.581Z,8
2024-02-10T09:48:25.873Z,8
2024-02-10T09:50:56.474Z,6
2024-02-10T09:53:26.806Z,8
2024-02-10T09:55:58.945Z,10
2024-02-10T09:58:27.683Z,8
2024-02-10T10:00:58.315Z,10
2024-02-10T10:03:29.228Z,9
2024-02-10T10:06:00.023Z,8
2024-02-10T10:08:30.696Z,16
2024-02-10T10:11:01.489Z,8
2024-02-10T10:13:32.291Z,12
2024-02-10T10:16:02.255Z,12
2024-02-10T10:18:32.608Z,13
2024-02-10T10:21:03.152Z,16
2024-02-10T10:23:33.177Z,8
2024-02-10T10:26:03.837Z,17
2024-02-10T10:28:34.523Z,11
2024-02-10T10:31:04.831Z,16
2024-02-10T10:33:35.272Z,15
2024-02-10T10:36:05.889Z,8
2024-02-10T10:38:36.624Z,6
2024-02-10T10:41:07.093Z,8
2024-02-10T10:43:37.454Z,8
2024-02-10T10:46:08.256Z,8
2024-02-10T10:48:39.016Z,10
2024-02-10T10:51:09.969Z,9
2024-02-10T10:53:40.556Z,9
2024-02-10T10:56:10.792Z,8
2024-02-10T10:58:41.144Z,4
2024-02-10T11:01:13.704Z,8
2024-02-10T11:03:42.532Z,12
2024-02-10T11:06:13.419Z,4
2024-02-10T11:08:44.955Z,8
2024-02-10T11:11:15.925Z,4
2024-02-10T11:13:44.687Z,5
2024-02-10T11:16:16.201Z,4
2024-02-10T11:18:47.554Z,4
2024-02-10T11:21:18.460Z,5
2024-02-10T11:23:49.562Z,8
2024-02-10T11:26:20.004Z,4
2024-02-10T11:28:51.084Z,8
2024-02-10T11:31:21.327Z,7
2024-02-10T11:33:52.526Z,4
2024-02-10T11:36:24.240Z,8
2024-02-10T11:38:53.588Z,4
2024-02-10T11:41:24.458Z,12
2024-02-10T11:43:54.594Z,4
2024-02-10T11:46:25.036Z,15
2024-02-10T11:48:55.794Z,19
2024-02-10T11:51:26.630Z,20
2024-02-10T11:53:57.207Z,22
2024-02-10T11:56:27.928Z,8
2024-02-10T11:58:58.886Z,6
2024-02-10T12:01:29.820Z,10
2024-02-10T12:04:00.144Z,4
2024-02-10T12:06:31.434Z,8
2024-02-10T12:09:02.776Z,8
2024-02-10T12:11:36.898Z,5
2024-02-10T12:14:07.095Z,4
2024-02-10T12:16:37.735Z,8
2024-02-10T12:19:08.709Z,12
2024-02-10T12:21:39.461Z,8
2024-02-10T12:24:09.328Z,8
2024-02-10T12:26:40.156Z,4
2024-02-10T12:29:12.210Z,7
2024-02-10T12:31:41.618Z,8
2024-02-10T12:34:11.732Z,8
2024-02-10T12:36:42.292Z,12
2024-02-10T12:39:13.284Z,8
2024-02-10T12:41:44.528Z,15
2024-02-10T12:44:14.482Z,4
2024-02-10T12:46:45.239Z,6
2024-02-10T12:49:14.557Z,20
2024-02-10T12:51:44.725Z,19
2024-02-10T12:54:15.619Z,24
2024-02-10T12:56:46.882Z,29
2024-02-10T12:59:17.296Z,28
2024-02-10T13:01:48.393Z,28
2024-02-10T13:04:19.613Z,22
2024-02-10T13:06:50.688Z,23
2024-02-10T13:09:21.220Z,22
2024-02-10T13:11:51.622Z,16
2024-02-10T13:14:22.306Z,16
2024-02-10T13:16:57.440Z,11
2024-02-10T13:19:26.193Z,16
2024-02-10T13:21:56.871Z,20
2024-02-10T13:24:27.737Z,30
2024-02-10T13:26:57.864Z,32
2024-02-10T13:29:28.742Z,35
2024-02-10T13:31:59.567Z,22
2024-02-10T13:34:35.740Z,16
2024-02-10T13:37:01.363Z,25
2024-02-10T13:39:32.342Z,32
2024-02-10T13:42:02.428Z,33
2024-02-10T13:44:32.598Z,40
2024-02-10T13:47:03.525Z,36
2024-02-10T13:49:34.739Z,21
2024-02-10T13:52:05.167Z,32
2024-02-10T13:54:35.734Z,32
2024-02-10T13:57:07.082Z,37
2024-02-10T13:59:37.554Z,28
2024-02-10T14:02:08.063Z,32
2024-02-10T14:04:38.522Z,27
2024-02-10T14:07:09.105Z,36
2024-02-10T14:09:40.213Z,40
2024-02-10T14:12:12.668Z,32
2024-02-10T14:14:41.256Z,46
2024-02-10T14:17:11.965Z,28
2024-02-10T14:19:43.326Z,28
2024-02-10T14:22:13.952Z,44
2024-02-10T14:24:44.781Z,40
2024-02-10T14:27:15.191Z,28
2024-02-10T14:29:45.922Z,32
2024-02-10T14:32:16.138Z,29
2024-02-10T14:34:47.695Z,28
2024-02-10T14:37:18.355Z,31
2024-02-10T14:39:48.555Z,44
2024-02-10T14:42:18.792Z,46
2024-02-10T14:44:49.772Z,44
2024-02-10T14:47:20.456Z,48
2024-02-10T14:49:49.466Z,56
2024-02-10T14:52:20.323Z,52
2024-02-10T14:54:51.565Z,48
2024-02-10T14:57:22.976Z,40
2024-02-10T14:59:53.049Z,49
2024-02-10T15:02:24.114Z,33
2024-02-10T15:04:54.374Z,44
2024-02-10T15:07:24.086Z,35
2024-02-10T15:09:54.386Z,29
2024-02-10T15:12:25.369Z,41
2024-02-10T15:14:56.796Z,44
2024-02-10T15:17:26.400Z,40
2024-02-10T15:19:57.501Z,40
2024-02-10T15:22:27.886Z,43
2024-02-10T15:24:56.479Z,48
2024-02-10T15:27:27.201Z,44
2024-02-10T15:29:57.326Z,44
2024-02-10T15:32:27.751Z,44
2024-02-10T15:35:00.780Z,56
2024-02-10T15:37:28.827Z,52
2024-02-10T15:39:59.184Z,44
2024-02-10T15:42:29.357Z,24
2024-02-10T15:44:59.657Z,39
2024-02-10T15:47:30.279Z,32
2024-02-10T15:50:00.553Z,40
2024-02-10T15:52:30.505Z,36
2024-02-10T15:55:00.651Z,36
2024-02-10T15:57:30.973Z,48
2024-02-10T16:00:01.669Z,46
2024-02-10T16:02:31.759Z,36
2024-02-10T16:05:01.805Z,47
2024-02-10T16:07:33.007Z,50
2024-02-10T16:10:03.677Z,40
2024-02-10T16:12:34.556Z,32
2024-02-10T16:15:04.988Z,40
2024-02-10T16:17:35.012Z,47
2024-02-10T16:20:04.420Z,48
2024-02-10T16:22:34.543Z,40
2024-02-10T16:25:05.267Z,44
2024-02-10T16:27:35.976Z,48
2024-02-10T16:30:07.665Z,44
2024-02-10T16:32:37.834Z,36
2024-02-10T16:35:07.935Z,40
2024-02-10T16:37:38.992Z,44
2024-02-10T16:40:09.667Z,59
2024-02-10T16:42:39.699Z,40
2024-02-10T16:45:09.995Z,56
2024-02-10T16:47:39.890Z,27
2024-02-10T16:50:09.977Z,44
2024-02-10T16:52:40.066Z,28
2024-02-10T16:55:11.240Z,44
2024-02-10T16:57:41.277Z,44
2024-02-10T17:00:11.622Z,54
2024-02-10T17:02:41.423Z,45
2024-02-10T17:05:11.568Z,48
2024-02-10T17:07:42.583Z,60
2024-02-10T17:10:12.805Z,56
2024-02-10T17:12:42.954Z,36
2024-02-10T17:15:13.096Z,44
2024-02-10T17:17:43.392Z,40
2024-02-10T17:20:14.079Z,44
2024-02-10T17:22:44.644Z,36
2024-02-10T17:25:14.856Z,40
2024-02-10T17:27:45.431Z,41
2024-02-10T17:30:15.639Z,39
2024-02-10T17:32:46.741Z,48
2024-02-10T17:35:17.520Z,47
2024-02-10T17:37:47.719Z,46
2024-02-10T17:40:17.648Z,36
2024-02-10T17:42:47.996Z,44
2024-02-10T17:45:17.952Z,41
2024-02-10T17:47:49.964Z,44
2024-02-10T17:50:19.831Z,44
2024-02-10T17:52:50.204Z,52
2024-02-10T17:55:20.741Z,37
2024-02-10T17:57:50.799Z,47
2024-02-10T18:00:23.233Z,48
2024-02-10T18:02:51.639Z,51
2024-02-10T18:05:23.110Z,48
2024-02-10T18:07:53.748Z,75
2024-02-10T18:10:24.260Z,49
2024-02-10T18:12:54.455Z,52
2024-02-10T18:15:24.675Z,40
2024-02-10T18:17:55.501Z,48
2024-02-10T18:20:26.519Z,48
2024-02-10T18:22:57.083Z,44
2024-02-10T18:25:27.623Z,44
2024-02-10T18:28:01.351Z,41
2024-02-10T18:30:31.353Z,44
2024-02-10T18:33:02.501Z,36
2024-02-10T18:35:36.428Z,40
2024-02-10T18:38:05.438Z,40
2024-02-10T18:40:36.395Z,28
2024-02-10T18:43:07.295Z,32
2024-02-10T18:45:37.370Z,36
2024-02-10T18:48:08.225Z,36
2024-02-10T18:50:42.427Z,32
2024-02-10T18:53:13.959Z,32
2024-02-10T18:55:44.679Z,28
2024-02-10T18:58:15.161Z,33
2024-02-10T19:00:45.416Z,28
2024-02-10T19:03:15.801Z,28
2024-02-10T19:05:46.015Z,29
2024-02-10T19:08:16.853Z,32
2024-02-10T19:10:47.145Z,36
2024-02-10T19:13:17.075Z,32
2024-02-10T19:15:47.859Z,38
2024-02-10T19:18:17.778Z,33
2024-02-10T19:20:48.193Z,43
2024-02-10T19:23:18.613Z,36
2024-02-10T19:25:48.955Z,32
2024-02-10T19:28:19.213Z,29
2024-02-10T19:30:49.693Z,44
2024-02-10T19:33:20.009Z,40
2024-02-10T19:35:50.939Z,45
2024-02-10T19:38:26.411Z,40
2024-02-10T19:40:51.796Z,40
2024-02-10T19:43:23.236Z,40
2024-02-10T19:45:53.682Z,40
2024-02-10T19:48:24.474Z,36
2024-02-10T19:50:54.795Z,37
2024-02-10T19:53:25.394Z,31
2024-02-10T19:55:56.353Z,35
2024-02-10T19:58:28.042Z,35
2024-02-10T20:00:58.675Z,44
2024-02-10T20:03:32.542Z,36
2024-02-10T20:06:03.590Z,36
2024-02-10T20:08:34.307Z,38
2024-02-10T20:11:05.838Z,36
2024-02-10T20:13:36.388Z,37
2024-02-10T20:16:06.240Z,32
2024-02-10T20:18:37.039Z,32
2024-02-10T20:21:07.876Z,32
2024-02-10T20:23:38.448Z,30
2024-02-10T20:26:09.080Z,32
2024-02-10T20:28:39.186Z,32
2024-02-10T20:31:10.190Z,32
2024-02-10T20:33:41.550Z,29
2024-02-10T20:36:12.094Z,32
2024-02-10T20:38:42.882Z,28
2024-02-10T20:41:13.789Z,29
2024-02-10T20:43:44.806Z,28
2024-02-10T20:46:15.862Z,32
2024-02-10T20:48:47.162Z,32
2024-02-10T20:51:17.456Z,32
2024-02-10T20:53:48.430Z,28
2024-02-10T20:56:19.804Z,26
2024-02-10T20:58:51.031Z,30
2024-02-10T21:01:22.026Z,28
2024-02-10T21:03:52.936Z,36
2024-02-10T21:06:23.597Z,35
2024-02-10T21:08:54.500Z,32
2024-02-10T21:11:25.099Z,28
2024-02-10T21:13:55.761Z,32
2024-02-10T21:16:26.580Z,28
2024-02-10T21:18:57.877Z,36
2024-02-10T21:21:29.113Z,81
2024-02-10T21:24:00.033Z,44
2024-02-10T21:26:31.190Z,36
2024-02-10T21:29:01.502Z,31
2024-02-10T21:31:32.115Z,24
2024-02-10T21:34:01.182Z,31
2024-02-10T21:36:31.468Z,28
2024-02-10T21:39:02.136Z,26
2024-02-10T21:41:32.872Z,24
2024-02-10T21:44:01.895Z,27
2024-02-10T21:46:33.146Z,25
2024-02-10T21:49:04.002Z,20
2024-02-10T21:51:32.929Z,24
2024-02-10T21:54:03.492Z,24
2024-02-10T21:56:34.078Z,24
2024-02-10T21:59:05.338Z,20
2024-02-10T22:01:38.690Z,21
2024-02-10T22:04:09.827Z,21
2024-02-10T22:06:40.280Z,16
2024-02-10T22:09:10.395Z,23
2024-02-10T22:11:41.328Z,20
2024-02-10T22:14:12.270Z,24
2024-02-10T22:16:42.829Z,24
2024-02-10T22:19:13.879Z,20
2024-02-10T22:21:44.369Z,20
2024-02-10T22:24:15.177Z,20
2024-02-10T22:26:46.191Z,20
2024-02-10T22:29:16.301Z,20
2024-02-10T22:31:47.008Z,23
2024-02-10T22:34:17.821Z,20
2024-02-10T22:36:49.075Z,16
2024-02-10T22:39:20.448Z,20
2024-02-10T22:41:51.294Z,19
2024-02-10T22:44:22.303Z,20
2024-02-10T22:46:58.808Z,24
2024-02-10T22:49:24.940Z,20
2024-02-10T22:51:54.007Z,18
2024-02-10T22:54:25.410Z,22
2024-02-10T22:57:00.382Z,22
2024-02-10T22:59:29.239Z,21
2024-02-10T23:02:00.339Z,20
2024-02-10T23:04:31.555Z,24
2024-02-10T23:07:00.768Z,24
2024-02-10T23:09:31.561Z,20
2024-02-10T23:12:02.121Z,16
2024-02-10T23:14:32.911Z,20
2024-02-10T23:17:04.109Z,20
2024-02-10T23:19:35.753Z,20
2024-02-10T23:22:06.220Z,20
2024-02-10T23:24:35.464Z,20
2024-02-10T23:27:07.062Z,18
2024-02-10T23:29:37.897Z,19
2024-02-10T23:32:08.602Z,16
2024-02-10T23:34:39.542Z,20
2024-02-10T23:37:11.713Z,20
2024-02-10T23:39:42.789Z,18
2024-02-10T23:42:13.047Z,20
2024-02-10T23:44:43.797Z,20
2024-02-10T23:47:14.887Z,20
2024-02-10T23:49:45.589Z,16
2024-02-10T23:52:16.076Z,19
2024-02-10T23:54:46.685Z,20
2024-02-10T23:57:20.238Z,20
2024-02-10T23:59:50.912Z,16
